PORTLAND INTL (KPDX) Information & Weather

WARNING: the data listed below is for informational purposes only and should be confirmed from official sources. Data presented here on this page may be out of date, incomplete or wrong.

Name: PORTLAND INTL
Identifier: KPDX

Coord: 45.5887N 122.5969W
Var: 16°E

Country: United States
Municipality: PORTLAND, OR
Time Zone: (GMT-08:00) America/Los_Angeles

Station Elevation: 31 ft
Pressure Altitude: 88 ft
Density Altitude: 1472 ft
Freezing Level: 12657 ft

Civil Twilight
Morning: 11:49 UTC  (03:49 local)
Evening: 04:39 UTC  (20:39 local)

Flight Category: VFR (12 minutes ago)

METAR KPDX 040453Z 34006KT 10SM FEW250 25/13 A2986 RMK AO2 SLP111 T02500133= [toggle past 4 hours]

TAF AMD KPDX 040859Z 0409/0506 33004KT P6SM SKC TEMPO 0414/0416 FEW010 FM042200 32008KT P6SM SKC=

Upper Winds

Source   Valid 375 1000 2000 2500 3000 5000 6000 8000 10000 12000 14000 16000 18000 21000 24000 26000 30000 34000 39000 44000 52000 60000
GFS 0409/0412 2904+15 3006+15 3307+18 0007+21 0005+21 3207+20 3210+18 3111+15 3110+12 3008+08 2907+04 2808-01 2709-06 2609-12 2609-18 2512-25 2620-34 2631-44 2537-55 2739-62 2911-62 0305-60

SIGMET/AIRMET

None within 25nm.

PIREP

None within 25nm.

NOTAM

None within 25nm.

Runway Data

Frequencies

Nearby Airports

Nearby Navaids